Time;durP1;ratioP1;P1;durP2;ratioP2;P2;SDS_P1;SDS_P2;PMS_P1;PMS_P2;Temp;Humidity;BMP_temperature;BMP_pressure;BME280_temperature;BME280_humidity;BME280_pressure;Samples;Min_cycle;Max_cycle;Signal;HPM_P1;HPM_P2
2021/12/11 00:02:28;;;;;;;;;;;0.50;99.90;;;;;;5054284;28;20011;-78
2021/12/11 00:04:57;;;;;;;;;;;0.60;99.90;;;;;;5053360;28;19928;-78
2021/12/11 00:07:25;;;;;;;;;;;0.60;99.90;;;;;;5051831;28;19928;-78
2021/12/11 00:09:54;;;;;;;;;;;0.60;99.90;;;;;;5053666;28;20008;-78
2021/12/11 00:12:21;;;;;;;;;;;0.60;99.90;;;;;;5062574;28;19927;-78
2021/12/11 00:14:51;;;;;;;;;;;0.70;99.90;;;;;;5052582;28;19999;-78
2021/12/11 00:17:22;;;;;;;;;;;0.70;99.90;;;;;;5053345;28;19921;-78
2021/12/11 00:19:49;;;;;;;;;;;0.70;99.90;;;;;;5052817;28;19924;-77
2021/12/11 00:22:18;;;;;;;;;;;0.70;99.90;;;;;;5052077;28;20027;-78
2021/12/11 00:24:45;;;;;;;;;;;0.80;99.90;;;;;;5054166;28;19931;-78
2021/12/11 00:27:14;;;;;;;;;;;0.80;99.90;;;;;;5043143;28;19935;-78
2021/12/11 00:29:41;;;;;;;;;;;0.80;99.90;;;;;;5047413;28;19951;-78
2021/12/11 00:32:11;;;;;;;;;;;0.80;99.90;;;;;;5052829;28;19921;-78
2021/12/11 00:34:39;;;;;;;;;;;0.80;99.90;;;;;;5036247;28;19925;-78
2021/12/11 00:37:10;;;;;;;;;;;0.80;99.90;;;;;;5041869;28;19920;-77
2021/12/11 00:39:45;;;;;;;;;;;0.80;99.90;;;;;;5052998;28;19964;-77
2021/12/11 00:42:12;;;;;;;;;;;0.80;99.90;;;;;;5061255;28;19967;-78
2021/12/11 00:44:44;;;;;;;;;;;0.80;99.90;;;;;;5070282;28;19947;-77
2021/12/11 00:47:16;;;;;;;;;;;0.80;99.90;;;;;;5074363;28;20131;-78
2021/12/11 00:49:45;;;;;;;;;;;0.80;99.90;;;;;;5047642;28;20230;-78
2021/12/11 00:52:12;;;;;;;;;;;0.80;99.90;;;;;;5052609;28;19939;-77
2021/12/11 00:54:40;;;;;;;;;;;0.80;99.90;;;;;;5052900;28;19947;-78
2021/12/11 00:57:08;;;;;;;;;;;0.70;99.90;;;;;;5044341;28;19933;-77
2021/12/11 00:59:57;;;;;;;;;;;0.70;99.90;;;;;;5042790;28;19929;-77
2021/12/11 01:02:30;;;;;;;;;;;0.70;99.90;;;;;;5052107;28;20387;-78
2021/12/11 01:04:59;;;;;;;;;;;0.70;99.90;;;;;;5046419;28;19991;-77
2021/12/11 01:07:31;;;;;;;;;;;0.70;99.90;;;;;;5048331;28;20004;-78
2021/12/11 01:10:11;;;;;;;;;;;0.60;99.90;;;;;;5048654;28;19959;-78
2021/12/11 01:12:46;;;;;;;;;;;0.60;99.90;;;;;;5043886;28;19925;-78
2021/12/11 01:15:16;;;;;;;;;;;0.50;99.90;;;;;;5046748;28;20023;-78
2021/12/11 01:18:00;;;;;;;;;;;0.50;99.90;;;;;;5049328;28;20017;-78
2021/12/11 01:20:34;;;;;;;;;;;0.50;99.90;;;;;;5048657;28;19973;-77
2021/12/11 01:23:02;;;;;;;;;;;0.50;99.90;;;;;;5048289;28;20366;-78
2021/12/11 01:25:29;;;;;;;;;;;0.50;99.90;;;;;;5045282;28;19925;-77
2021/12/11 01:28:00;;;;;;;;;;;0.50;99.90;;;;;;5044455;28;19932;-77
2021/12/11 01:30:33;;;;;;;;;;;0.40;99.90;;;;;;5049390;28;19932;-78
2021/12/11 01:33:00;;;;;;;;;;;0.40;99.90;;;;;;5050335;28;19932;-78
2021/12/11 01:35:27;;;;;;;;;;;0.40;99.90;;;;;;5048968;28;20414;-78
2021/12/11 01:38:04;;;;;;;;;;;0.40;99.90;;;;;;5048357;28;20023;-78
2021/12/11 01:40:31;;;;;;;;;;;0.40;99.90;;;;;;5048782;28;19924;-78
2021/12/11 01:43:03;;;;;;;;;;;0.40;99.90;;;;;;5048995;28;20016;-78
2021/12/11 01:45:30;;;;;;;;;;;0.40;99.90;;;;;;5037552;28;19924;-78
2021/12/11 01:48:00;;;;;;;;;;;0.40;99.90;;;;;;5048109;28;19924;-78
2021/12/11 01:50:33;;;;;;;;;;;0.40;99.90;;;;;;5048725;28;19938;-76
2021/12/11 01:53:05;;;;;;;;;;;0.40;99.90;;;;;;5048062;28;20023;-81
2021/12/11 01:55:38;;;;;;;;;;;0.30;99.90;;;;;;5031702;28;19928;-81
2021/12/11 01:58:06;;;;;;;;;;;0.40;99.90;;;;;;5046447;28;19925;-81
2021/12/11 02:00:36;;;;;;;;;;;0.40;99.90;;;;;;5038969;28;19937;-81
2021/12/11 02:03:06;;;;;;;;;;;0.40;99.90;;;;;;5049559;28;19935;-80
2021/12/11 02:05:34;;;;;;;;;;;0.40;99.90;;;;;;5048267;28;20343;-81
2021/12/11 02:08:03;;;;;;;;;;;0.40;99.90;;;;;;5048301;28;20577;-81
2021/12/11 02:10:39;;;;;;;;;;;0.40;99.90;;;;;;5050636;28;19929;-80
2021/12/11 02:13:08;;;;;;;;;;;0.40;99.90;;;;;;5050665;28;19971;-80
2021/12/11 02:15:39;;;;;;;;;;;0.40;99.90;;;;;;5048686;28;19932;-80
2021/12/11 02:18:33;;;;;;;;;;;0.40;99.90;;;;;;5041099;28;19976;-80
2021/12/11 02:21:04;;;;;;;;;;;0.50;99.90;;;;;;5048091;28;19924;-80
2021/12/11 02:23:33;;;;;;;;;;;0.50;99.90;;;;;;5044464;28;19928;-80
2021/12/11 02:26:03;;;;;;;;;;;0.40;99.90;;;;;;5044887;28;20372;-80
2021/12/11 02:28:36;;;;;;;;;;;0.50;99.90;;;;;;5038621;28;19933;-81
2021/12/11 02:31:26;;;;;;;;;;;0.50;99.90;;;;;;5048533;28;19925;-81
2021/12/11 02:34:08;;;;;;;;;;;0.50;99.90;;;;;;5046602;28;22053;-81
2021/12/11 02:36:47;;;;;;;;;;;0.50;99.90;;;;;;5042274;28;20007;-81
2021/12/11 02:39:26;;;;;;;;;;;0.50;99.90;;;;;;5047882;28;20402;-80
2021/12/11 02:42:02;;;;;;;;;;;0.50;99.90;;;;;;5050218;28;19924;-81
2021/12/11 02:44:32;;;;;;;;;;;0.50;99.90;;;;;;5040345;28;20448;-81
2021/12/11 02:47:06;;;;;;;;;;;0.50;99.90;;;;;;5048625;28;19929;-81
2021/12/11 02:49:43;;;;;;;;;;;0.50;99.90;;;;;;5044153;28;20508;-80
2021/12/11 02:52:22;;;;;;;;;;;0.60;99.90;;;;;;5048989;28;19925;-80
2021/12/11 02:55:01;;;;;;;;;;;0.50;99.90;;;;;;5044290;28;19925;-81
2021/12/11 02:57:30;;;;;;;;;;;0.50;99.90;;;;;;5046546;28;19932;-81
2021/12/11 03:00:15;;;;;;;;;;;0.50;99.90;;;;;;5049102;28;20051;-80
2021/12/11 03:02:48;;;;;;;;;;;0.60;99.90;;;;;;5048442;28;19925;-81
2021/12/11 03:05:17;;;;;;;;;;;0.50;99.90;;;;;;5039847;28;19932;-81
2021/12/11 03:07:51;;;;;;;;;;;0.60;99.90;;;;;;5048607;28;19994;-80
2021/12/11 03:10:21;;;;;;;;;;;0.50;99.90;;;;;;5043923;28;20371;-80
2021/12/11 03:12:52;;;;;;;;;;;0.60;99.90;;;;;;5032914;28;20309;-80
2021/12/11 03:15:19;;;;;;;;;;;0.60;99.90;;;;;;5047490;28;19924;-80
2021/12/11 03:17:46;;;;;;;;;;;0.60;99.90;;;;;;5047494;28;20405;-80
2021/12/11 03:20:14;;;;;;;;;;;0.60;99.90;;;;;;5040819;28;19943;-81
2021/12/11 03:22:43;;;;;;;;;;;0.60;99.90;;;;;;5044332;28;20039;-81
2021/12/11 03:25:11;;;;;;;;;;;0.60;99.90;;;;;;5046978;28;20250;-81
2021/12/11 03:27:38;;;;;;;;;;;0.60;99.90;;;;;;5033263;28;19947;-81
2021/12/11 03:30:07;;;;;;;;;;;0.60;99.90;;;;;;5046065;28;20379;-81
2021/12/11 03:32:34;;;;;;;;;;;0.60;99.90;;;;;;5046131;28;19924;-81
2021/12/11 03:35:01;;;;;;;;;;;0.60;99.90;;;;;;5046467;28;20183;-81
2021/12/11 03:37:28;;;;;;;;;;;0.60;99.90;;;;;;5046045;28;19924;-80
2021/12/11 03:39:55;;;;;;;;;;;0.60;99.90;;;;;;5046979;28;19925;-81
2021/12/11 03:42:24;;;;;;;;;;;0.60;99.90;;;;;;5047033;28;19924;-81
2021/12/11 03:44:51;;;;;;;;;;;0.60;99.90;;;;;;5047597;28;19925;-81
2021/12/11 03:47:21;;;;;;;;;;;0.70;99.90;;;;;;5045102;28;20011;-81
2021/12/11 03:49:48;;;;;;;;;;;0.70;99.90;;;;;;5049372;28;20023;-81
2021/12/11 03:52:15;;;;;;;;;;;0.70;99.90;;;;;;5047628;28;20050;-80
2021/12/11 03:54:43;;;;;;;;;;;0.80;99.90;;;;;;5028581;28;19925;-81
2021/12/11 03:57:12;;;;;;;;;;;0.80;99.90;;;;;;5042104;28;19925;-80
2021/12/11 03:59:43;;;;;;;;;;;0.80;99.90;;;;;;5044069;28;19928;-81
2021/12/11 04:02:11;;;;;;;;;;;0.90;99.90;;;;;;5047046;28;20024;-81
2021/12/11 04:04:44;;;;;;;;;;;0.90;99.90;;;;;;5047677;28;19925;-80
2021/12/11 04:07:12;;;;;;;;;;;1.00;99.90;;;;;;5045640;28;20517;-81
2021/12/11 04:09:46;;;;;;;;;;;1.00;99.90;;;;;;5040328;28;20302;-81
2021/12/11 04:12:13;;;;;;;;;;;1.00;99.90;;;;;;5036703;28;19939;-81
2021/12/11 04:14:41;;;;;;;;;;;1.00;99.90;;;;;;5047931;28;20276;-81
2021/12/11 04:17:10;;;;;;;;;;;1.00;99.90;;;;;;5045874;28;19975;-81
2021/12/11 04:19:37;;;;;;;;;;;0.90;99.90;;;;;;5047763;28;19925;-81
2021/12/11 04:22:04;;;;;;;;;;;1.00;99.90;;;;;;5045356;28;20378;-81
2021/12/11 04:24:32;;;;;;;;;;;1.00;99.90;;;;;;5048007;28;20024;-81
2021/12/11 04:27:00;;;;;;;;;;;1.00;99.90;;;;;;5045892;28;19939;-81
2021/12/11 04:29:28;;;;;;;;;;;1.00;99.90;;;;;;5047091;28;20401;-81
2021/12/11 04:32:01;;;;;;;;;;;1.00;99.90;;;;;;5043560;28;19932;-81
2021/12/11 04:34:29;;;;;;;;;;;1.00;99.90;;;;;;5046505;28;20377;-81
2021/12/11 04:37:02;;;;;;;;;;;1.00;99.90;;;;;;5047021;28;20397;-81
2021/12/11 04:39:34;;;;;;;;;;;1.00;99.90;;;;;;5030734;28;20391;-81
2021/12/11 04:42:15;;;;;;;;;;;0.90;99.90;;;;;;5047091;28;20137;-81
2021/12/11 04:44:44;;;;;;;;;;;0.80;99.90;;;;;;5051040;28;20307;-81
2021/12/11 04:47:31;;;;;;;;;;;0.80;99.90;;;;;;5049866;28;19963;-81
2021/12/11 04:50:04;;;;;;;;;;;0.80;99.90;;;;;;5042455;28;20004;-81
2021/12/11 04:52:44;;;;;;;;;;;0.80;99.90;;;;;;5044852;28;19925;-81
2021/12/11 05:11:02;;;;;;;;;;;1.10;99.90;;;;;;5051741;28;20379;-80
2021/12/11 05:13:29;;;;;;;;;;;1.20;99.90;;;;;;5048942;28;20350;-80
2021/12/11 05:15:57;;;;;;;;;;;1.20;99.90;;;;;;5051938;28;19947;-80
2021/12/11 05:18:26;;;;;;;;;;;1.20;99.90;;;;;;5048208;28;19995;-80
2021/12/11 05:20:55;;;;;;;;;;;1.20;99.90;;;;;;5049567;28;19936;-80
2021/12/11 05:23:22;;;;;;;;;;;1.20;99.90;;;;;;5049822;28;20028;-81
2021/12/11 05:25:51;;;;;;;;;;;1.10;99.90;;;;;;5049565;28;19979;-80
2021/12/11 05:28:18;;;;;;;;;;;1.10;99.90;;;;;;5048624;28;20406;-80
2021/12/11 05:30:46;;;;;;;;;;;1.10;99.90;;;;;;5065369;28;20102;-80
2021/12/11 05:33:16;;;;;;;;;;;1.00;99.90;;;;;;5049832;28;19960;-80
2021/12/11 05:35:43;;;;;;;;;;;1.00;99.90;;;;;;5048807;28;19943;-81
2021/12/11 05:38:11;;;;;;;;;;;1.00;99.90;;;;;;5049230;28;19935;-81
2021/12/11 05:40:39;;;;;;;;;;;1.00;99.90;;;;;;5047267;28;19935;-80
2021/12/11 05:43:06;;;;;;;;;;;0.90;99.90;;;;;;5050422;28;20132;-80
2021/12/11 05:45:33;;;;;;;;;;;0.90;99.90;;;;;;5049693;28;20016;-80
2021/12/11 05:48:00;;;;;;;;;;;0.90;99.90;;;;;;5058925;28;20333;-80
2021/12/11 05:50:28;;;;;;;;;;;1.00;99.90;;;;;;5045006;28;19956;-80
2021/12/11 05:52:56;;;;;;;;;;;1.00;99.90;;;;;;5032502;28;19925;-81
2021/12/11 05:55:24;;;;;;;;;;;1.00;99.90;;;;;;5050100;28;20020;-80
2021/12/11 05:58:03;;;;;;;;;;;1.10;99.90;;;;;;5042218;28;19935;-80
2021/12/11 06:00:33;;;;;;;;;;;1.10;99.90;;;;;;5044362;28;19925;-80
2021/12/11 06:03:01;;;;;;;;;;;1.10;99.90;;;;;;5049447;28;20023;-80
2021/12/11 06:05:28;;;;;;;;;;;1.10;99.90;;;;;;5048623;28;19942;-81
2021/12/11 06:07:56;;;;;;;;;;;1.10;99.90;;;;;;5062895;28;19971;-80
2021/12/11 06:10:24;;;;;;;;;;;1.00;99.90;;;;;;5049328;28;20141;-80
2021/12/11 06:12:52;;;;;;;;;;;1.00;99.90;;;;;;5047886;28;20640;-80
2021/12/11 06:15:23;;;;;;;;;;;1.10;99.90;;;;;;5048225;28;19932;-80
2021/12/11 06:17:50;;;;;;;;;;;1.10;99.90;;;;;;5042042;28;20379;-80
2021/12/11 06:20:19;;;;;;;;;;;1.10;99.90;;;;;;5045489;28;19940;-80
2021/12/11 06:22:46;;;;;;;;;;;1.10;99.90;;;;;;5033950;28;20024;-80
2021/12/11 06:25:15;;;;;;;;;;;1.00;99.90;;;;;;5047265;28;19931;-80
2021/12/11 06:27:41;;;;;;;;;;;1.00;99.90;;;;;;5040346;28;20380;-80
2021/12/11 06:30:11;;;;;;;;;;;0.90;99.90;;;;;;5047016;28;19925;-80
2021/12/11 06:32:41;;;;;;;;;;;0.80;99.90;;;;;;5047290;28;20011;-80
2021/12/11 06:35:13;;;;;;;;;;;0.70;99.90;;;;;;5047931;28;20271;-80
2021/12/11 06:37:42;;;;;;;;;;;0.60;99.90;;;;;;5048583;28;19925;-80
2021/12/11 06:40:11;;;;;;;;;;;0.50;99.90;;;;;;5047373;28;19925;-80
2021/12/11 06:42:38;;;;;;;;;;;0.40;99.90;;;;;;5047613;28;19939;-81
2021/12/11 06:45:05;;;;;;;;;;;0.30;99.90;;;;;;5052216;28;20008;-80
2021/12/11 06:47:32;;;;;;;;;;;0.10;99.90;;;;;;5063090;28;19966;-80
2021/12/11 06:49:59;;;;;;;;;;;-0.10;99.90;;;;;;5035412;28;19932;-81
2021/12/11 06:52:26;;;;;;;;;;;-0.30;99.90;;;;;;5047897;28;19933;-80
2021/12/11 06:54:53;;;;;;;;;;;-0.40;99.90;;;;;;5045823;28;20015;-81
2021/12/11 06:57:20;;;;;;;;;;;-0.60;99.90;;;;;;5046325;28;20008;-80
2021/12/11 06:59:57;;;;;;;;;;;-0.70;99.90;;;;;;5048253;28;20414;-81
2021/12/11 07:02:23;;;;;;;;;;;-0.80;99.90;;;;;;5048008;28;19972;-80
2021/12/11 07:04:54;;;;;;;;;;;-0.90;99.90;;;;;;5046447;28;19924;-80
2021/12/11 07:07:24;;;;;;;;;;;-1.00;99.90;;;;;;5048498;28;19960;-81
2021/12/11 07:09:55;;;;;;;;;;;-1.10;99.90;;;;;;5048817;28;19924;-80
2021/12/11 07:12:30;;;;;;;;;;;-1.30;99.90;;;;;;5037889;28;20011;-80
2021/12/11 07:14:57;;;;;;;;;;;-1.30;99.90;;;;;;5048804;28;19924;-80
2021/12/11 07:17:23;;;;;;;;;;;-1.40;99.90;;;;;;5048501;28;19929;-80
2021/12/11 07:19:50;;;;;;;;;;;-1.40;99.90;;;;;;5039794;28;19925;-80
2021/12/11 07:22:17;;;;;;;;;;;-1.40;99.90;;;;;;5050043;28;19967;-80
2021/12/11 07:24:47;;;;;;;;;;;-1.40;99.90;;;;;;5048853;28;19939;-80
2021/12/11 07:27:18;;;;;;;;;;;-1.40;99.90;;;;;;5047994;28;19925;-80
2021/12/11 07:29:44;;;;;;;;;;;-1.50;99.90;;;;;;5043187;28;19929;-81
2021/12/11 07:32:11;;;;;;;;;;;-1.50;99.90;;;;;;5044061;28;19925;-81
2021/12/11 07:34:39;;;;;;;;;;;-1.50;99.90;;;;;;5039453;28;20011;-81
2021/12/11 07:37:06;;;;;;;;;;;-1.60;99.90;;;;;;5033455;28;19931;-80
2021/12/11 07:39:33;;;;;;;;;;;-1.60;99.90;;;;;;5046183;28;19925;-81
2021/12/11 07:41:59;;;;;;;;;;;-1.70;99.90;;;;;;5046679;28;19932;-81
2021/12/11 07:44:26;;;;;;;;;;;-1.70;99.90;;;;;;5049785;28;20008;-80
2021/12/11 07:46:54;;;;;;;;;;;-1.80;99.90;;;;;;5039508;28;20307;-80
2021/12/11 07:49:22;;;;;;;;;;;-1.80;99.90;;;;;;5059484;28;19959;-81
2021/12/11 07:51:50;;;;;;;;;;;-1.80;99.90;;;;;;5047894;28;19979;-81
2021/12/11 07:54:18;;;;;;;;;;;-1.80;99.90;;;;;;5046454;28;19947;-81
2021/12/11 07:56:44;;;;;;;;;;;-1.80;99.90;;;;;;5039573;28;20375;-81
2021/12/11 07:59:11;;;;;;;;;;;-1.80;99.90;;;;;;5033098;28;20288;-81
2021/12/11 08:01:43;;;;;;;;;;;-1.80;99.90;;;;;;5048390;28;19931;-81
2021/12/11 08:04:11;;;;;;;;;;;-1.80;99.90;;;;;;5043980;28;19931;-81
2021/12/11 08:06:40;;;;;;;;;;;-1.80;99.90;;;;;;5046024;28;19978;-81
2021/12/11 08:09:09;;;;;;;;;;;-1.80;99.90;;;;;;5046362;28;19998;-81
2021/12/11 08:11:36;;;;;;;;;;;-1.80;99.90;;;;;;5044608;28;19931;-81
2021/12/11 08:14:02;;;;;;;;;;;-1.80;99.90;;;;;;5049982;28;19979;-82
2021/12/11 08:16:34;;;;;;;;;;;-1.80;99.90;;;;;;5050802;28;19925;-81
2021/12/11 08:19:02;;;;;;;;;;;-1.70;99.90;;;;;;5048683;28;20024;-81
2021/12/11 08:21:29;;;;;;;;;;;-1.50;99.90;;;;;;5051778;28;19975;-81
2021/12/11 08:23:58;;;;;;;;;;;-1.30;99.90;;;;;;5052779;28;20368;-82
2021/12/11 08:26:25;;;;;;;;;;;-1.10;99.90;;;;;;5049944;28;19925;-82
2021/12/11 08:28:53;;;;;;;;;;;-0.70;99.90;;;;;;5042123;28;19924;-79
2021/12/11 08:31:20;;;;;;;;;;;-0.20;99.90;;;;;;5050709;28;20023;-80
2021/12/11 08:33:48;;;;;;;;;;;0.30;99.90;;;;;;5048185;28;19956;-80
2021/12/11 08:36:14;;;;;;;;;;;0.70;99.90;;;;;;5050219;28;19936;-80
2021/12/11 08:38:41;;;;;;;;;;;0.90;99.90;;;;;;5044379;28;20136;-80
2021/12/11 08:41:10;;;;;;;;;;;1.00;99.90;;;;;;5049736;28;19924;-80
2021/12/11 08:43:37;;;;;;;;;;;1.10;99.90;;;;;;5051334;28;19931;-80
2021/12/11 08:46:11;;;;;;;;;;;1.40;99.90;;;;;;5031308;28;20125;-81
2021/12/11 08:48:43;;;;;;;;;;;1.80;99.90;;;;;;5037446;28;20430;-82
2021/12/11 08:51:14;;;;;;;;;;;2.30;99.90;;;;;;5044426;28;19925;-82
2021/12/11 08:53:44;;;;;;;;;;;2.80;99.90;;;;;;5051152;28;19925;-82
2021/12/11 08:56:12;;;;;;;;;;;3.00;99.90;;;;;;5051814;28;19978;-82
2021/12/11 08:58:44;;;;;;;;;;;3.20;99.90;;;;;;5047215;28;20317;-82
2021/12/11 09:01:17;;;;;;;;;;;3.40;99.90;;;;;;5035441;28;20427;-82
2021/12/11 09:03:50;;;;;;;;;;;3.90;99.90;;;;;;5047609;28;19939;-82
2021/12/11 09:06:22;;;;;;;;;;;4.30;99.90;;;;;;5047138;28;19979;-82
2021/12/11 09:09:08;;;;;;;;;;;4.80;99.90;;;;;;5049703;28;20568;-80
2021/12/11 09:11:41;;;;;;;;;;;5.20;99.90;;;;;;5047138;28;19951;-80
2021/12/11 09:14:10;;;;;;;;;;;5.60;99.90;;;;;;5043374;28;19924;-80
2021/12/11 09:16:37;;;;;;;;;;;5.60;99.90;;;;;;5041289;28;19924;-80
2021/12/11 09:19:30;;;;;;;;;;;5.90;99.90;;;;;;5049019;28;19959;-80
2021/12/11 09:21:59;;;;;;;;;;;6.10;99.90;;;;;;5048851;28;19931;-80
2021/12/11 09:24:28;;;;;;;;;;;6.50;99.90;;;;;;5049351;28;20342;-79
2021/12/11 09:26:58;;;;;;;;;;;6.50;99.90;;;;;;5049602;28;19943;-80
2021/12/11 09:29:32;;;;;;;;;;;6.80;99.90;;;;;;5050807;28;20418;-80
2021/12/11 09:32:19;;;;;;;;;;;7.10;99.90;;;;;;5048709;28;19978;-79
2021/12/11 09:34:49;;;;;;;;;;;7.40;99.90;;;;;;5042600;28;20379;-80
2021/12/11 09:37:15;;;;;;;;;;;7.60;99.90;;;;;;5049262;28;20004;-79
2021/12/11 09:39:48;;;;;;;;;;;7.90;99.90;;;;;;5034497;28;19932;-80
2021/12/11 09:42:14;;;;;;;;;;;8.00;99.90;;;;;;5046188;28;19933;-80
2021/12/11 09:44:59;;;;;;;;;;;8.30;99.90;;;;;;5049892;28;19925;-80
2021/12/11 09:47:30;;;;;;;;;;;8.60;99.90;;;;;;5039416;28;19929;-80
2021/12/11 09:50:03;;;;;;;;;;;8.80;99.90;;;;;;5045872;28;19939;-80
2021/12/11 09:52:32;;;;;;;;;;;9.00;99.90;;;;;;5050908;28;19979;-80
2021/12/11 09:55:08;;;;;;;;;;;9.10;99.90;;;;;;5047905;28;20160;-80
2021/12/11 09:57:37;;;;;;;;;;;9.20;99.90;;;;;;5047641;28;19929;-80
2021/12/11 10:00:10;;;;;;;;;;;9.40;99.90;;;;;;5049848;28;20011;-80
2021/12/11 10:02:38;;;;;;;;;;;9.20;99.90;;;;;;5049611;28;20027;-80
2021/12/11 10:05:35;;;;;;;;;;;9.40;99.90;;;;;;5048123;28;19929;-80
2021/12/11 10:10:53;;;;;;;;;;;9.90;99.90;;;;;;5045448;28;20023;-82
2021/12/11 10:13:21;;;;;;;;;;;10.30;99.90;;;;;;5046401;28;19956;-83
2021/12/11 10:15:48;;;;;;;;;;;10.60;99.90;;;;;;5047217;28;19932;-83
2021/12/11 10:18:17;;;;;;;;;;;10.70;99.90;;;;;;5046415;28;20461;-83
2021/12/11 10:20:43;;;;;;;;;;;10.60;99.90;;;;;;5048060;28;19925;-83
2021/12/11 10:23:12;;;;;;;;;;;9.90;99.90;;;;;;5048594;28;19925;-83
2021/12/11 10:25:42;;;;;;;;;;;9.90;99.90;;;;;;5039749;28;19925;-82
2021/12/11 10:28:13;;;;;;;;;;;10.00;99.90;;;;;;5047958;28;20193;-83
2021/12/11 10:30:44;;;;;;;;;;;9.90;99.90;;;;;;5048374;28;19931;-83
2021/12/11 10:33:12;;;;;;;;;;;10.40;99.90;;;;;;5039577;28;19929;-83
2021/12/11 10:35:40;;;;;;;;;;;10.60;99.90;;;;;;5041267;28;19928;-82
2021/12/11 10:38:07;;;;;;;;;;;10.40;99.90;;;;;;5037352;28;19929;-82
2021/12/11 10:40:38;;;;;;;;;;;10.40;99.90;;;;;;5041501;28;19932;-81
2021/12/11 10:43:08;;;;;;;;;;;10.40;99.90;;;;;;5043877;28;19939;-81
2021/12/11 10:45:34;;;;;;;;;;;10.30;99.90;;;;;;5043446;28;19935;-82
2021/12/11 10:48:05;;;;;;;;;;;10.90;99.90;;;;;;5045442;28;19982;-81
2021/12/11 10:50:35;;;;;;;;;;;10.90;99.90;;;;;;5051370;28;19964;-79
2021/12/11 10:53:05;;;;;;;;;;;10.70;99.90;;;;;;5046844;28;19970;-79
2021/12/11 10:55:33;;;;;;;;;;;10.40;99.90;;;;;;5039784;28;19931;-79
2021/12/11 10:58:03;;;;;;;;;;;10.50;99.90;;;;;;5036968;28;19959;-79
2021/12/11 11:00:33;;;;;;;;;;;10.30;99.90;;;;;;5045705;28;20431;-79
2021/12/11 11:03:01;;;;;;;;;;;10.40;99.90;;;;;;5044790;28;19932;-79
2021/12/11 11:05:28;;;;;;;;;;;10.20;99.90;;;;;;5046295;28;19962;-79
2021/12/11 11:07:56;;;;;;;;;;;10.50;99.90;;;;;;5045434;28;20310;-80
2021/12/11 11:10:25;;;;;;;;;;;10.50;99.90;;;;;;5045019;28;19956;-80
2021/12/11 11:12:54;;;;;;;;;;;10.80;99.90;;;;;;5046744;28;20293;-80
2021/12/11 11:15:22;;;;;;;;;;;11.10;99.90;;;;;;5046520;28;20448;-80
2021/12/11 11:17:49;;;;;;;;;;;11.00;99.90;;;;;;5045386;28;19939;-79
2021/12/11 11:20:19;;;;;;;;;;;10.90;99.90;;;;;;5046015;28;19943;-80
2021/12/11 11:22:46;;;;;;;;;;;10.30;99.90;;;;;;5045475;28;20250;-80
2021/12/11 11:25:15;;;;;;;;;;;10.20;99.90;;;;;;5048339;28;19931;-80
2021/12/11 11:27:44;;;;;;;;;;;10.10;99.90;;;;;;5047661;28;19925;-81
2021/12/11 11:30:13;;;;;;;;;;;10.20;99.90;;;;;;5047829;28;19924;-80
2021/12/11 11:32:43;;;;;;;;;;;10.70;99.90;;;;;;5032776;28;20443;-80
2021/12/11 11:35:12;;;;;;;;;;;10.80;99.90;;;;;;5048045;28;19925;-78
2021/12/11 11:37:48;;;;;;;;;;;10.30;99.90;;;;;;5045717;28;19937;-78
2021/12/11 11:40:18;;;;;;;;;;;10.00;99.90;;;;;;5048276;28;20394;-81
2021/12/11 11:42:45;;;;;;;;;;;9.60;99.90;;;;;;5045964;28;19929;-80
2021/12/11 11:45:12;;;;;;;;;;;9.10;99.90;;;;;;5047814;28;19971;-79
2021/12/11 11:47:40;;;;;;;;;;;9.30;99.90;;;;;;5047265;28;19925;-79
2021/12/11 11:50:08;;;;;;;;;;;9.40;99.90;;;;;;5046826;28;19925;-79
2021/12/11 11:52:35;;;;;;;;;;;9.50;99.90;;;;;;5049108;28;19929;-80
2021/12/11 11:55:05;;;;;;;;;;;9.80;99.90;;;;;;5048008;28;19999;-80
2021/12/11 11:57:34;;;;;;;;;;;10.50;99.90;;;;;;5045463;28;19925;-80
2021/12/11 12:00:03;;;;;;;;;;;10.70;99.90;;;;;;5049263;28;19924;-81
2021/12/11 12:02:30;;;;;;;;;;;11.40;99.90;;;;;;5047962;28;20418;-81
2021/12/11 12:04:58;;;;;;;;;;;11.70;99.90;;;;;;5064424;28;19954;-81
2021/12/11 12:07:27;;;;;;;;;;;12.20;99.90;;;;;;5048237;28;19924;-81
2021/12/11 12:10:00;;;;;;;;;;;12.70;99.90;;;;;;5046470;28;20398;-81
2021/12/11 12:12:29;;;;;;;;;;;12.90;99.90;;;;;;5033921;28;19932;-81
2021/12/11 12:14:56;;;;;;;;;;;12.50;99.90;;;;;;5047417;28;19929;-81
2021/12/11 12:17:27;;;;;;;;;;;12.90;99.90;;;;;;5047637;28;19925;-81
2021/12/11 12:19:57;;;;;;;;;;;12.90;99.90;;;;;;5034498;28;21548;-81
2021/12/11 12:22:25;;;;;;;;;;;12.60;99.90;;;;;;5050157;28;19925;-80
2021/12/11 12:24:52;;;;;;;;;;;11.30;99.90;;;;;;5035378;28;19932;-78
2021/12/11 12:27:21;;;;;;;;;;;10.50;99.90;;;;;;5046171;28;19944;-78
2021/12/11 12:29:48;;;;;;;;;;;9.80;99.90;;;;;;5047514;28;19936;-79
2021/12/11 12:32:17;;;;;;;;;;;9.20;99.90;;;;;;5039852;28;19925;-81
2021/12/11 12:34:44;;;;;;;;;;;8.70;99.90;;;;;;5045761;28;19938;-79
2021/12/11 12:37:11;;;;;;;;;;;8.10;99.90;;;;;;5047759;28;20397;-82
2021/12/11 12:39:40;;;;;;;;;;;7.50;99.90;;;;;;5046271;28;20217;-82
2021/12/11 12:42:17;;;;;;;;;;;7.10;99.90;;;;;;5047931;28;19921;-80
2021/12/11 12:44:54;;;;;;;;;;;6.80;99.90;;;;;;5045969;28;19933;-80
2021/12/11 12:47:23;;;;;;;;;;;6.50;99.90;;;;;;5045313;28;20264;-79
2021/12/11 12:49:52;;;;;;;;;;;6.20;99.90;;;;;;5038169;28;19960;-79
2021/12/11 12:52:22;;;;;;;;;;;6.00;99.90;;;;;;5046055;28;20200;-79
2021/12/11 12:54:52;;;;;;;;;;;5.90;99.90;;;;;;5047607;28;19921;-79
2021/12/11 12:57:32;;;;;;;;;;;5.90;99.90;;;;;;5036663;28;19921;-79
2021/12/11 12:59:58;;;;;;;;;;;5.80;99.90;;;;;;5049412;28;20349;-80
2021/12/11 13:02:27;;;;;;;;;;;5.70;99.90;;;;;;5049193;28;19943;-80
2021/12/11 13:04:57;;;;;;;;;;;5.60;99.90;;;;;;5050058;28;19921;-80
2021/12/11 13:07:47;;;;;;;;;;;5.60;99.90;;;;;;5049115;28;19928;-79
2021/12/11 13:10:17;;;;;;;;;;;5.40;99.90;;;;;;5066826;28;19972;-76
2021/12/11 13:12:45;;;;;;;;;;;5.30;99.90;;;;;;5049966;28;19925;-77
2021/12/11 13:15:19;;;;;;;;;;;5.10;99.90;;;;;;5049105;28;20390;-77
2021/12/11 13:17:48;;;;;;;;;;;4.90;99.90;;;;;;5048757;28;19968;-77
2021/12/11 13:20:17;;;;;;;;;;;4.70;99.90;;;;;;5048976;28;19921;-76
2021/12/11 13:22:45;;;;;;;;;;;4.50;99.90;;;;;;5048559;28;20002;-76
2021/12/11 13:25:19;;;;;;;;;;;4.40;99.90;;;;;;5050245;28;19920;-77
2021/12/11 13:27:48;;;;;;;;;;;4.20;99.90;;;;;;5051691;28;19967;-76
2021/12/11 13:30:17;;;;;;;;;;;4.10;99.90;;;;;;5036552;28;20372;-76
2021/12/11 13:32:45;;;;;;;;;;;4.10;99.90;;;;;;5049093;28;20023;-76
2021/12/11 13:35:14;;;;;;;;;;;4.00;99.90;;;;;;5048910;28;20414;-76
2021/12/11 13:37:40;;;;;;;;;;;4.10;99.90;;;;;;5046595;28;20373;-76
2021/12/11 13:40:10;;;;;;;;;;;4.00;99.90;;;;;;5046882;28;20395;-77
2021/12/11 13:42:41;;;;;;;;;;;4.00;99.90;;;;;;5064774;28;20510;-77
2021/12/11 13:45:13;;;;;;;;;;;3.90;99.90;;;;;;5049520;28;19921;-77
2021/12/11 13:47:40;;;;;;;;;;;3.90;99.90;;;;;;5043285;28;20083;-78
2021/12/11 13:50:27;;;;;;;;;;;3.90;99.90;;;;;;5049763;28;20023;-77
2021/12/11 13:52:54;;;;;;;;;;;3.90;99.90;;;;;;5048996;28;19925;-77
2021/12/11 13:55:21;;;;;;;;;;;3.80;99.90;;;;;;5039098;28;19927;-76
2021/12/11 13:57:59;;;;;;;;;;;3.80;99.90;;;;;;5050210;28;20439;-78
2021/12/11 14:00:28;;;;;;;;;;;3.80;99.90;;;;;;5049441;28;19929;-77
2021/12/11 14:03:09;;;;;;;;;;;3.80;99.90;;;;;;5050376;28;19921;-77
2021/12/11 14:05:36;;;;;;;;;;;3.80;99.90;;;;;;5049093;28;19931;-77
2021/12/11 14:08:07;;;;;;;;;;;3.80;99.90;;;;;;5047110;28;19921;-77
2021/12/11 14:10:35;;;;;;;;;;;3.80;99.90;;;;;;5033952;28;19932;-77
2021/12/11 14:13:05;;;;;;;;;;;3.80;99.90;;;;;;5049060;28;19927;-77
2021/12/11 14:15:32;;;;;;;;;;;3.80;99.90;;;;;;5046813;28;19966;-77
2021/12/11 14:17:59;;;;;;;;;;;3.80;99.90;;;;;;5048741;28;19974;-77
2021/12/11 14:20:29;;;;;;;;;;;3.80;99.90;;;;;;5046316;28;20339;-77
2021/12/11 14:22:56;;;;;;;;;;;3.90;99.90;;;;;;5044880;28;20407;-77
2021/12/11 14:25:23;;;;;;;;;;;3.90;99.90;;;;;;5038761;28;19921;-77
2021/12/11 14:27:53;;;;;;;;;;;3.80;99.90;;;;;;5038333;28;19920;-77
2021/12/11 14:30:20;;;;;;;;;;;3.80;99.90;;;;;;5047110;28;19928;-77
2021/12/11 14:32:53;;;;;;;;;;;3.70;99.90;;;;;;5045956;28;19927;-77
2021/12/11 14:35:22;;;;;;;;;;;3.70;99.90;;;;;;5047489;28;19921;-77
2021/12/11 14:37:49;;;;;;;;;;;3.70;99.90;;;;;;5046904;28;19920;-77
2021/12/11 14:40:17;;;;;;;;;;;3.70;99.90;;;;;;5042833;28;19940;-77
2021/12/11 14:42:44;;;;;;;;;;;3.70;99.90;;;;;;5049018;28;20020;-77
2021/12/11 14:45:13;;;;;;;;;;;3.60;99.90;;;;;;5049188;28;19924;-77
2021/12/11 14:47:40;;;;;;;;;;;3.60;99.90;;;;;;5045888;28;20003;-77
2021/12/11 14:50:08;;;;;;;;;;;3.60;99.90;;;;;;5046143;28;19979;-77
2021/12/11 14:52:35;;;;;;;;;;;3.60;99.90;;;;;;5047000;28;19940;-77
2021/12/11 14:55:05;;;;;;;;;;;3.60;99.90;;;;;;5047437;28;19920;-77
2021/12/11 14:57:33;;;;;;;;;;;3.60;99.90;;;;;;5046108;28;19927;-77
2021/12/11 15:00:00;;;;;;;;;;;3.60;99.90;;;;;;5033717;28;20465;-77
2021/12/11 15:02:34;;;;;;;;;;;3.60;99.90;;;;;;5049852;28;19927;-77